createdAt,value
2019-04-11T00:00:22.519Z,54.5
2019-04-11T00:00:46.771Z,54.5
2019-04-11T00:01:11.054Z,54.5
2019-04-11T00:01:42.940Z,56.599998
2019-04-11T00:02:03.566Z,56.599998
2019-04-11T00:02:27.856Z,56.599998
2019-04-11T00:02:52.142Z,56.599998
2019-04-11T00:03:16.386Z,56.599998
2019-04-11T00:03:40.658Z,56.599998
2019-04-11T00:04:04.970Z,56.599998
2019-04-11T00:04:29.213Z,56.599998
2019-04-11T00:04:53.527Z,56.599998
2019-04-11T00:05:17.840Z,56.599998
2019-04-11T00:05:42.147Z,56.599998
2019-04-11T00:06:06.407Z,56.599998
2019-04-11T00:06:30.699Z,56.599998
2019-04-11T00:06:54.975Z,56.599998
2019-04-11T00:07:19.287Z,56.599998
2019-04-11T00:07:43.586Z,56.599998
2019-04-11T00:08:08.918Z,56.599998
2019-04-11T00:08:33.170Z,56.599998
2019-04-11T00:08:57.419Z,56.599998
2019-04-11T00:09:21.682Z,56.599998
2019-04-11T00:09:45.962Z,56.599998
2019-04-11T00:10:11.304Z,56.599998
2019-04-11T00:10:36.378Z,56.599998
2019-04-11T00:11:00.631Z,56.599998
2019-04-11T00:11:24.910Z,56.599998
2019-04-11T00:11:49.196Z,56.599998
2019-04-11T00:12:13.448Z,56.599998
2019-04-11T00:12:37.754Z,56.599998
2019-04-11T00:13:14.051Z,56.599998
2019-04-11T00:13:30.550Z,56.599998
2019-04-11T00:13:54.593Z,56.599998
2019-04-11T00:14:18.882Z,56.599998
2019-04-11T00:14:43.146Z,56.599998
2019-04-11T00:15:07.455Z,56.599998
2019-04-11T00:15:31.738Z,56.599998
2019-04-11T00:15:55.995Z,56.599998
2019-04-11T00:16:20.263Z,56.599998
2019-04-11T00:16:44.548Z,56.599998
2019-04-11T00:17:08.830Z,56.599998
2019-04-11T00:17:33.104Z,56.599998
2019-04-11T00:17:57.443Z,56.599998
2019-04-11T00:18:21.734Z,56.599998
2019-04-11T00:18:46.030Z,56.599998
2019-04-11T00:19:10.282Z,72.099998
2019-04-11T00:19:34.667Z,72.099998
2019-04-11T00:19:58.910Z,72.099998
2019-04-11T00:20:23.200Z,72.099998
2019-04-11T00:20:47.441Z,72.099998
2019-04-11T00:21:11.723Z,72.099998
2019-04-11T00:21:35.998Z,72.099998
2019-04-11T00:22:00.368Z,72.099998
2019-04-11T00:22:24.634Z,72.099998
2019-04-11T00:22:48.906Z,72.099998
2019-04-11T00:23:13.137Z,72.099998
2019-04-11T00:23:37.443Z,72.099998
2019-04-11T00:24:01.678Z,72.099998
2019-04-11T00:24:25.973Z,72.099998
2019-04-11T00:24:50.239Z,72.099998
2019-04-11T00:25:14.562Z,72.099998
2019-04-11T00:25:38.835Z,72.099998
2019-04-11T00:26:03.100Z,72.099998
2019-04-11T00:26:27.433Z,72.099998
2019-04-11T00:26:51.720Z,72.099998
2019-04-11T00:27:15.975Z,72.099998
2019-04-11T00:27:40.276Z,72.099998
2019-04-11T00:28:04.575Z,72.099998
2019-04-11T00:28:28.813Z,72.099998
2019-04-11T00:28:53.095Z,72.099998
2019-04-11T00:29:17.372Z,72.099998
2019-04-11T00:29:41.698Z,72.099998
2019-04-11T00:30:06.949Z,72.099998
2019-04-11T00:30:31.252Z,72.099998
2019-04-11T00:30:55.574Z,72.099998
2019-04-11T00:31:19.865Z,72.099998
2019-04-11T00:31:44.151Z,72.099998
2019-04-11T00:32:09.553Z,72.099998
2019-04-11T00:32:32.710Z,72.099998
2019-04-11T00:32:56.950Z,72.099998
2019-04-11T00:33:21.237Z,72.099998
2019-04-11T00:33:45.551Z,72.099998
2019-04-11T00:34:09.853Z,72.099998
2019-04-11T00:34:34.124Z,72.099998
2019-04-11T00:34:58.364Z,72.099998
2019-04-11T00:35:22.671Z,72.099998
2019-04-11T00:35:46.987Z,72.099998
2019-04-11T00:36:11.329Z,72.099998
2019-04-11T00:36:35.613Z,72.099998
2019-04-11T00:36:59.881Z,72.099998
2019-04-11T00:37:24.162Z,72.099998
2019-04-11T00:37:48.467Z,72.099998
2019-04-11T00:38:12.796Z,72.099998
2019-04-11T00:38:37.096Z,72.099998
2019-04-11T00:39:02.404Z,72.099998
2019-04-11T00:39:26.714Z,72.099998
2019-04-11T00:39:51.009Z,72.099998
2019-04-11T00:40:16.235Z,46.700001
2019-04-11T00:40:40.464Z,46.700001
2019-04-11T00:41:04.741Z,46.700001
2019-04-11T00:41:29.010Z,46.700001
2019-04-11T00:41:53.337Z,46.700001
2019-04-11T00:42:17.606Z,46.700001
2019-04-11T00:42:41.906Z,46.700001
2019-04-11T00:43:06.209Z,46.700001
2019-04-11T00:43:37.504Z,46.700001
2019-04-11T00:43:57.658Z,46.700001
2019-04-11T00:44:21.940Z,46.700001
2019-04-11T00:44:46.215Z,46.700001
2019-04-11T00:45:10.536Z,46.700001
2019-04-11T00:45:34.860Z,46.700001
2019-04-11T00:45:59.179Z,46.700001
2019-04-11T00:46:23.433Z,46.700001
2019-04-11T00:46:47.714Z,46.700001
2019-04-11T00:47:11.986Z,46.700001
2019-04-11T00:47:36.264Z,55.099998
2019-04-11T00:48:00.570Z,55.099998
2019-04-11T00:48:24.844Z,55.099998
2019-04-11T00:48:49.107Z,55.099998
2019-04-11T00:49:13.366Z,55.099998
2019-04-11T00:49:37.667Z,55.099998
2019-04-11T00:50:02.104Z,55.099998
2019-04-11T00:50:26.361Z,55.099998
2019-04-11T00:50:50.639Z,55.099998
2019-04-11T00:51:14.910Z,55.099998
2019-04-11T00:51:39.145Z,55.099998
2019-04-11T00:52:03.431Z,55.099998
2019-04-11T00:52:28.424Z,55.099998
2019-04-11T00:52:52.693Z,55.099998
2019-04-11T00:53:17.003Z,55.099998
2019-04-11T00:53:41.334Z,55.099998
2019-04-11T00:54:05.629Z,55.099998
2019-04-11T00:54:29.934Z,55.099998
2019-04-11T00:54:54.249Z,55.099998
2019-04-11T00:55:18.555Z,55.099998
2019-04-11T00:55:42.841Z,55.099998
2019-04-11T00:56:07.146Z,55.099998
2019-04-11T00:56:31.378Z,55.099998
2019-04-11T00:56:55.670Z,55.099998
2019-04-11T00:57:19.961Z,55.099998
2019-04-11T00:57:44.215Z,55.099998
2019-04-11T00:58:08.531Z,55.099998
2019-04-11T00:58:32.819Z,55.099998
2019-04-11T00:58:57.128Z,55.099998
2019-04-11T00:59:21.378Z,55.099998
2019-04-11T00:59:45.652Z,55.099998
2019-04-11T01:00:09.995Z,55.099998
2019-04-11T01:00:34.332Z,55.099998
2019-04-11T01:00:58.544Z,55.099998
2019-04-11T01:01:22.831Z,55.099998
2019-04-11T01:01:48.110Z,55.099998
2019-04-11T01:02:12.437Z,55.099998
2019-04-11T01:02:36.708Z,55.099998
2019-04-11T01:03:00.994Z,55.099998
2019-04-11T01:03:25.288Z,55.099998
2019-04-11T01:03:50.523Z,55.099998
2019-04-11T01:04:14.792Z,55.099998
2019-04-11T01:04:40.099Z,55.099998
2019-04-11T01:05:04.382Z,55.099998
2019-04-11T01:05:28.685Z,55.099998
2019-04-11T01:05:52.972Z,55.099998
2019-04-11T01:06:17.209Z,55.099998
2019-04-11T01:06:41.496Z,55.099998
2019-04-11T01:07:05.773Z,55.099998
2019-04-11T01:07:30.036Z,55.099998
2019-04-11T01:07:54.320Z,55.099998
2019-04-11T01:08:18.694Z,55.099998
2019-04-11T01:08:42.979Z,55.099998
2019-04-11T01:09:07.257Z,55.099998
2019-04-11T01:09:31.522Z,55.099998
2019-04-11T01:09:55.813Z,55.099998
2019-04-11T01:10:21.308Z,55.099998
2019-04-11T01:10:46.619Z,55.099998
2019-04-11T01:11:10.884Z,55.099998
2019-04-11T01:11:35.178Z,55.099998
2019-04-11T01:11:59.404Z,55.099998
2019-04-11T01:12:23.668Z,55.099998
2019-04-11T01:12:47.942Z,55.099998
2019-04-11T01:13:12.233Z,55.099998
2019-04-11T01:13:44.259Z,55.099998
2019-04-11T01:14:04.602Z,55.099998
2019-04-11T01:14:28.890Z,55.099998
2019-04-11T01:14:54.205Z,55.099998
2019-04-11T01:15:18.504Z,55.099998
2019-04-11T01:15:43.789Z,55.099998
2019-04-11T01:16:08.053Z,55.099998
2019-04-11T01:16:39.845Z,55.099998
2019-04-11T01:17:04.171Z,55.099998
2019-04-11T01:17:28.463Z,55.099998
2019-04-11T01:17:52.797Z,55.099998
2019-04-11T01:18:17.027Z,55.099998
2019-04-11T01:18:41.321Z,55.099998
2019-04-11T01:19:05.606Z,55.099998
2019-04-11T01:19:29.875Z,55.099998
2019-04-11T01:19:54.176Z,55.099998
2019-04-11T01:20:18.454Z,55.099998
2019-04-11T01:20:42.868Z,55.099998
2019-04-11T01:21:07.171Z,55.099998
2019-04-11T01:21:31.708Z,55.099998
2019-04-11T01:21:55.971Z,55.099998
2019-04-11T01:22:21.249Z,55.099998
2019-04-11T01:22:45.537Z,55.099998
2019-04-11T01:23:09.943Z,55.099998
2019-04-11T01:23:34.257Z,55.099998
2019-04-11T01:23:58.520Z,55.099998
2019-04-11T01:24:22.794Z,55.099998
2019-04-11T01:24:47.088Z,55.099998
2019-04-11T01:25:11.397Z,74.699997
2019-04-11T01:25:35.772Z,74.699997
2019-04-11T01:26:00.041Z,74.699997
2019-04-11T01:26:24.326Z,79.5
2019-04-11T01:26:48.592Z,79.5
2019-04-11T01:27:12.918Z,79.5
2019-04-11T01:27:37.223Z,79.5
2019-04-11T01:28:01.509Z,79.5
2019-04-11T01:28:25.783Z,79.5
2019-04-11T01:28:50.083Z,79.5
2019-04-11T01:29:14.413Z,79.5
2019-04-11T01:29:38.706Z,79.5
2019-04-11T01:30:02.995Z,79.5
2019-04-11T01:30:28.064Z,48.900002
2019-04-11T01:30:52.331Z,48.900002
2019-04-11T01:31:16.622Z,48.900002
2019-04-11T01:31:40.918Z,48.900002
2019-04-11T01:32:05.242Z,48.900002
2019-04-11T01:32:29.504Z,48.900002
2019-04-11T01:32:53.773Z,48.900002
2019-04-11T01:33:18.851Z,48.900002
2019-04-11T01:33:43.185Z,48.900002
2019-04-11T01:34:07.462Z,48.900002
2019-04-11T01:34:31.786Z,48.900002
2019-04-11T01:34:56.044Z,48.900002
2019-04-11T01:35:20.332Z,48.900002
2019-04-11T01:35:44.670Z,48.900002
2019-04-11T01:36:09.944Z,48.900002
2019-04-11T01:36:34.223Z,48.900002
2019-04-11T01:36:58.511Z,48.900002
2019-04-11T01:37:22.794Z,48.900002
2019-04-11T01:37:47.087Z,48.900002
2019-04-11T01:38:11.348Z,48.900002
2019-04-11T01:38:35.630Z,48.900002
2019-04-11T01:38:59.887Z,48.900002
2019-04-11T01:39:24.182Z,48.900002
2019-04-11T01:39:48.438Z,48.900002
2019-04-11T01:40:12.731Z,48.900002
2019-04-11T01:40:37.005Z,48.900002
2019-04-11T01:41:01.299Z,48.900002
2019-04-11T01:41:25.614Z,48.900002
2019-04-11T01:41:49.899Z,48.900002
2019-04-11T01:42:14.181Z,77.300003
2019-04-11T01:42:38.510Z,77.300003
2019-04-11T01:43:02.839Z,77.300003
2019-04-11T01:43:27.118Z,77.300003
2019-04-11T01:43:59.171Z,77.300003
2019-04-11T01:44:19.640Z,77.300003
2019-04-11T01:44:43.993Z,77.300003
2019-04-11T01:45:08.345Z,77.300003
2019-04-11T01:45:32.660Z,77.300003
2019-04-11T01:45:56.918Z,77.300003
2019-04-11T01:46:21.180Z,77.300003
2019-04-11T01:46:45.457Z,77.300003
2019-04-11T01:47:09.734Z,77.300003
2019-04-11T01:47:34.028Z,77.300003
2019-04-11T01:47:58.365Z,77.300003
2019-04-11T01:48:22.629Z,77.300003
2019-04-11T01:48:46.898Z,77.300003
2019-04-11T01:49:11.140Z,77.300003
2019-04-11T01:49:35.435Z,77.300003
2019-04-11T01:49:59.724Z,77.300003
2019-04-11T01:50:24.026Z,77.300003
2019-04-11T01:50:48.314Z,77.300003
2019-04-11T01:51:12.641Z,77.300003
2019-04-11T01:51:36.921Z,77.300003
2019-04-11T01:52:01.181Z,77.300003
2019-04-11T01:52:25.482Z,77.300003
2019-04-11T01:52:49.737Z,77.300003
2019-04-11T01:53:14.022Z,77.300003
2019-04-11T01:53:38.331Z,70.199997
2019-04-11T01:54:02.516Z,70.199997
2019-04-11T01:54:26.855Z,70.199997
2019-04-11T01:54:51.088Z,70.199997
2019-04-11T01:55:15.361Z,70.199997
2019-04-11T01:55:39.735Z,70.199997
2019-04-11T01:56:04.039Z,70.199997
2019-04-11T01:56:28.328Z,70.199997
2019-04-11T01:56:52.623Z,70.199997
2019-04-11T01:57:16.900Z,70.199997
2019-04-11T01:57:41.189Z,70.199997
2019-04-11T01:58:05.541Z,70.199997
2019-04-11T01:58:29.849Z,70.199997
2019-04-11T01:58:54.129Z,70.199997
2019-04-11T01:59:18.397Z,70.199997
2019-04-11T01:59:42.701Z,70.199997
2019-04-11T02:00:06.983Z,70.199997
2019-04-11T02:00:31.224Z,70.199997
2019-04-11T02:00:55.545Z,70.199997
2019-04-11T02:01:19.840Z,70.199997
2019-04-11T02:01:44.127Z,70.199997
2019-04-11T02:02:08.399Z,70.199997
2019-04-11T02:02:33.675Z,70.199997
2019-04-11T02:02:57.944Z,70.199997
2019-04-11T02:03:22.252Z,70.199997
2019-04-11T02:03:46.521Z,70.199997
2019-04-11T02:04:10.823Z,70.199997
2019-04-11T02:04:35.142Z,70.199997
2019-04-11T02:04:59.621Z,70.199997
2019-04-11T02:05:24.037Z,70.199997
2019-04-11T02:05:48.389Z,70.199997
2019-04-11T02:06:12.801Z,70.199997
2019-04-11T02:06:37.137Z,70.199997
2019-04-11T02:07:01.420Z,70.199997
2019-04-11T02:07:25.743Z,70.199997
2019-04-11T02:07:50.021Z,70.199997
2019-04-11T02:08:14.309Z,70.199997
2019-04-11T02:08:38.576Z,70.199997
2019-04-11T02:09:02.895Z,70.199997
2019-04-11T02:09:27.213Z,70.199997
2019-04-11T02:09:51.495Z,70.199997
2019-04-11T02:10:15.775Z,70.199997
2019-04-11T02:10:40.079Z,70.199997
2019-04-11T02:11:04.360Z,70.199997
2019-04-11T02:11:28.624Z,70.199997
2019-04-11T02:11:52.947Z,70.199997
2019-04-11T02:12:17.237Z,113
2019-04-11T02:12:42.468Z,113
2019-04-11T02:13:06.761Z,113
2019-04-11T02:13:31.039Z,113
2019-04-11T02:14:04.982Z,113
2019-04-11T02:14:22.965Z,113
2019-04-11T02:14:46.930Z,113
2019-04-11T02:15:11.213Z,113
2019-04-11T02:15:35.505Z,113
2019-04-11T02:16:00.194Z,113
2019-04-11T02:16:24.118Z,113
2019-04-11T02:16:48.392Z,113
2019-04-11T02:17:13.605Z,113
2019-04-11T02:17:37.992Z,113
2019-04-11T02:18:02.267Z,113
2019-04-11T02:18:26.564Z,113
2019-04-11T02:18:50.871Z,113
2019-04-11T02:19:15.137Z,113
2019-04-11T02:19:39.446Z,113
2019-04-11T02:20:03.779Z,113
2019-04-11T02:20:28.057Z,113
2019-04-11T02:20:52.396Z,113
2019-04-11T02:21:16.693Z,113
2019-04-11T02:21:40.992Z,113
2019-04-11T02:22:05.260Z,77.5
2019-04-11T02:22:29.492Z,77.5
2019-04-11T02:22:53.798Z,77.5
2019-04-11T02:23:18.081Z,77.5
2019-04-11T02:23:42.417Z,77.5
2019-04-11T02:24:06.711Z,77.5
2019-04-11T02:24:30.994Z,77.5
2019-04-11T02:24:55.268Z,52.400002
2019-04-11T02:25:19.505Z,52.400002
2019-04-11T02:25:43.812Z,52.400002
2019-04-11T02:26:08.075Z,52.400002
2019-04-11T02:26:32.414Z,52.400002
2019-04-11T02:26:57.691Z,52.400002
2019-04-11T02:27:22.040Z,52.400002
2019-04-11T02:27:47.298Z,52.400002
2019-04-11T02:28:11.585Z,52.400002
2019-04-11T02:28:35.926Z,52.400002
2019-04-11T02:29:00.236Z,52.400002
2019-04-11T02:29:24.537Z,52.400002
2019-04-11T02:29:49.803Z,52.400002
2019-04-11T02:30:16.524Z,52.400002
2019-04-11T02:30:41.599Z,52.400002
2019-04-11T02:31:07.643Z,52.400002
2019-04-11T02:31:33.213Z,52.400002
2019-04-11T02:31:57.805Z,52.400002
2019-04-11T02:32:23.381Z,52.400002
2019-04-11T02:32:47.813Z,52.400002
2019-04-11T02:33:12.135Z,52.400002
2019-04-11T02:33:37.500Z,52.400002
2019-04-11T02:34:02.325Z,52.400002
2019-04-11T02:34:26.120Z,52.400002
2019-04-11T02:34:50.996Z,52.400002
2019-04-11T02:35:18.119Z,52.400002
2019-04-11T02:35:42.719Z,52.400002
2019-04-11T02:36:07.838Z,52.400002
2019-04-11T02:36:32.099Z,52.400002
2019-04-11T02:36:56.312Z,52.400002
2019-04-11T02:37:20.243Z,52.400002
2019-04-11T02:37:44.709Z,52.400002
2019-04-11T02:38:10.119Z,52.400002
2019-04-11T02:38:35.300Z,52.400002
2019-04-11T02:39:04.434Z,52.400002
2019-04-11T02:39:29.827Z,52.400002
2019-04-11T02:39:54.044Z,52.400002
2019-04-11T02:40:18.306Z,52.400002
2019-04-11T02:40:43.626Z,52.400002
2019-04-11T02:41:08.521Z,52.400002
2019-04-11T02:41:32.338Z,52.400002
2019-04-11T02:41:57.455Z,52.400002
2019-04-11T02:42:21.840Z,52.400002
2019-04-11T02:42:46.138Z,52.400002
2019-04-11T02:43:11.582Z,52.400002
2019-04-11T02:43:36.920Z,16.299999
2019-04-11T02:44:02.063Z,16.299999
2019-04-11T02:44:38.155Z,16.299999
2019-04-11T02:45:08.960Z,16.299999
2019-04-11T02:45:36.125Z,16.299999
2019-04-11T02:45:57.921Z,16.299999
2019-04-11T02:46:26.621Z,16.299999
2019-04-11T02:46:54.042Z,16.299999
2019-04-11T02:47:17.875Z,16.299999
2019-04-11T02:47:41.902Z,16.299999
2019-04-11T02:48:06.474Z,16.299999
2019-04-11T02:48:31.608Z,16.299999
2019-04-11T02:48:57.128Z,16.299999
2019-04-11T02:49:21.877Z,16.299999
2019-04-11T02:49:46.058Z,16.299999
2019-04-11T02:50:10.970Z,16.299999
2019-04-11T02:50:37.026Z,16.299999
2019-04-11T02:51:01.241Z,16.299999
2019-04-11T02:51:25.383Z,16.299999
2019-04-11T02:51:49.750Z,16.299999
2019-04-11T02:52:13.825Z,16.299999
2019-04-11T02:52:38.309Z,16.299999
2019-04-11T02:53:03.443Z,16.299999
2019-04-11T02:53:28.597Z,16.299999
2019-04-11T02:53:52.414Z,16.299999
2019-04-11T02:54:18.501Z,16.299999
2019-04-11T02:54:43.464Z,16.299999
2019-04-11T02:55:08.369Z,16.299999
2019-04-11T02:55:32.088Z,16.299999
2019-04-11T02:55:56.838Z,16.299999
2019-04-11T02:56:21.876Z,16.299999
2019-04-11T02:56:47.613Z,16.299999
2019-04-11T02:57:12.571Z,16.299999
2019-04-11T02:57:36.835Z,16.299999
2019-04-11T02:58:01.610Z,16.299999
2019-04-11T02:58:25.893Z,16.299999
2019-04-11T02:58:50.875Z,16.299999
2019-04-11T02:59:16.077Z,16.299999
2019-04-11T02:59:41.413Z,16.299999
2019-04-11T03:00:06.745Z,16.299999
2019-04-11T03:00:31.416Z,16.299999
2019-04-11T03:00:57.778Z,16.299999
2019-04-11T03:01:22.588Z,16.299999
2019-04-11T03:01:46.899Z,16.299999
2019-04-11T03:02:11.553Z,16.299999
2019-04-11T03:02:37.526Z,16.299999
2019-04-11T03:03:04.039Z,16.299999
2019-04-11T03:03:28.021Z,16.299999
2019-04-11T03:03:52.335Z,16.299999
2019-04-11T03:04:17.538Z,16.299999
2019-04-11T03:04:42.103Z,16.299999
2019-04-11T03:05:07.529Z,16.299999
2019-04-11T03:05:31.449Z,16.299999
2019-04-11T03:05:58.057Z,16.299999
2019-04-11T03:06:21.986Z,16.299999
2019-04-11T03:06:46.308Z,16.299999
2019-04-11T03:07:10.501Z,16.299999
2019-04-11T03:07:36.524Z,16.299999
2019-04-11T03:08:01.482Z,16.299999
2019-04-11T03:08:28.604Z,16.299999
2019-04-11T03:08:53.491Z,16.299999
2019-04-11T03:09:18.042Z,16.299999
2019-04-11T03:09:42.160Z,16.299999
2019-04-11T03:10:07.670Z,16.299999
2019-04-11T03:10:31.788Z,16.299999
2019-04-11T03:10:56.029Z,16.299999
2019-04-11T03:11:21.788Z,16.299999
2019-04-11T03:11:45.559Z,16.299999
2019-04-11T03:12:09.877Z,16.299999
2019-04-11T03:12:34.288Z,16.299999
2019-04-11T03:12:59.514Z,16.299999
2019-04-11T03:13:23.782Z,16.299999
2019-04-11T03:13:48.968Z,16.299999
2019-04-11T03:14:14.550Z,16.299999
2019-04-11T03:15:23.802Z,16.299999
2019-04-11T03:15:48.103Z,16.299999
2019-04-11T03:16:42.504Z,16.299999
2019-04-11T03:17:06.119Z,16.299999
2019-04-11T03:17:29.382Z,16.299999
2019-04-11T03:17:53.065Z,16.299999
2019-04-11T03:18:35.460Z,16.299999
2019-04-11T03:18:58.786Z,16.299999
2019-04-11T03:19:24.982Z,16.299999
2019-04-11T03:20:15.237Z,65.099998
2019-04-11T03:20:42.132Z,65.099998
2019-04-11T03:21:06.955Z,65.099998
2019-04-11T03:21:31.447Z,87.900002
2019-04-11T03:21:57.095Z,87.900002
2019-04-11T03:22:20.878Z,87.900002
2019-04-11T03:22:46.455Z,87.900002
2019-04-11T03:23:14.938Z,87.900002
2019-04-11T03:23:38.032Z,87.900002
2019-04-11T03:24:03.258Z,87.900002
2019-04-11T03:24:29.249Z,87.900002
2019-04-11T03:24:53.780Z,87.900002
2019-04-11T03:25:18.786Z,87.900002
2019-04-11T03:25:43.177Z,87.900002
2019-04-11T03:26:08.008Z,87.900002
2019-04-11T03:26:31.823Z,87.900002
2019-04-11T03:26:56.826Z,87.900002
2019-04-11T03:27:22.897Z,87.900002
2019-04-11T03:27:47.889Z,87.900002
2019-04-11T03:28:16.507Z,87.900002
2019-04-11T03:28:41.159Z,87.900002
2019-04-11T03:29:06.763Z,87.900002
2019-04-11T03:29:31.366Z,87.900002
2019-04-11T03:29:56.447Z,87.900002
2019-04-11T03:30:31.542Z,56.900002
2019-04-11T03:31:12.684Z,56.900002
2019-04-11T03:31:49.471Z,56.900002
2019-04-11T03:32:48.172Z,56.900002
2019-04-11T03:33:24.027Z,56.900002
2019-04-11T03:35:59.183Z,56.900002
2019-04-11T03:36:31.497Z,56.900002
2019-04-11T03:37:18.481Z,56.900002
2019-04-11T03:37:58.188Z,63.900002
2019-04-11T03:38:29.165Z,63.900002
2019-04-11T03:38:52.772Z,63.900002
2019-04-11T03:39:21.070Z,63.900002
2019-04-11T03:39:43.347Z,63.900002
2019-04-11T03:40:11.146Z,63.900002
2019-04-11T03:40:34.764Z,55.700001
2019-04-11T03:41:04.057Z,55.700001
2019-04-11T03:41:31.827Z,55.700001
2019-04-11T03:41:58.766Z,55.700001
2019-04-11T03:42:25.883Z,60.099998
2019-04-11T03:42:53.648Z,60.099998
2019-04-11T03:43:14.976Z,60.099998
2019-04-11T03:43:41.648Z,60.099998
2019-04-11T03:44:08.403Z,60.099998
2019-04-11T03:44:33.420Z,60.099998
2019-04-11T03:45:14.943Z,60.099998
2019-04-11T03:45:43.245Z,60.099998
2019-04-11T03:46:07.977Z,60.099998
2019-04-11T03:46:32.391Z,60.099998
2019-04-11T03:47:23.430Z,60.099998
2019-04-11T03:47:52.428Z,60.099998
2019-04-11T03:48:21.578Z,60.099998
2019-04-11T03:48:46.407Z,60.099998
2019-04-11T03:49:10.084Z,60.099998
2019-04-11T03:49:37.362Z,60.099998
2019-04-11T03:50:01.241Z,60.099998
2019-04-11T03:50:25.894Z,60.099998
2019-04-11T03:50:49.323Z,60.099998
2019-04-11T03:51:15.359Z,60.099998
2019-04-11T03:51:41.346Z,60.099998
2019-04-11T03:52:06.256Z,60.099998
2019-04-11T03:52:31.113Z,60.099998
2019-04-11T03:52:56.620Z,60.099998
2019-04-11T03:53:22.152Z,60.099998
2019-04-11T03:53:47.620Z,60.099998
2019-04-11T03:54:12.026Z,60.099998
2019-04-11T03:54:36.665Z,60.099998
2019-04-11T03:55:00.778Z,60.099998
2019-04-11T03:55:26.386Z,60.099998
2019-04-11T03:55:50.138Z,60.099998
2019-04-11T03:56:14.595Z,60.099998
2019-04-11T03:56:39.674Z,60.099998
2019-04-11T03:57:04.024Z,60.099998
2019-04-11T03:57:28.243Z,60.099998
2019-04-11T03:57:54.161Z,60.099998
2019-04-11T03:58:20.145Z,60.099998
2019-04-11T03:58:44.324Z,60.099998
2019-04-11T03:59:08.978Z,60.099998
2019-04-11T03:59:34.187Z,60.099998
2019-04-11T03:59:59.239Z,60.099998
2019-04-11T04:00:30.178Z,60.099998
2019-04-11T04:00:55.497Z,60.099998
2019-04-11T04:01:20.980Z,60.099998
2019-04-11T04:01:45.028Z,60.099998
2019-04-11T04:02:10.704Z,60.099998
2019-04-11T04:02:35.455Z,60.099998
2019-04-11T04:02:59.950Z,60.099998
2019-04-11T04:03:25.083Z,60.099998
2019-04-11T04:03:49.548Z,60.099998
2019-04-11T04:04:13.759Z,70.699997
2019-04-11T04:04:39.842Z,70.699997
2019-04-11T04:05:04.288Z,70.699997
2019-04-11T04:05:28.862Z,65.5
2019-04-11T04:05:55.663Z,65.5
2019-04-11T04:06:19.606Z,65.5
2019-04-11T04:06:43.960Z,65.5
2019-04-11T04:07:09.410Z,65.5
2019-04-11T04:07:34.466Z,65.5
2019-04-11T04:08:00.087Z,65.5
2019-04-11T04:08:25.110Z,65.5
2019-04-11T04:08:49.135Z,65.5
2019-04-11T04:09:13.496Z,65.5
2019-04-11T04:09:40.314Z,65.5
2019-04-11T04:10:05.567Z,65.5
2019-04-11T04:10:30.373Z,65.5
2019-04-11T04:10:54.737Z,65.5
2019-04-11T04:11:19.367Z,65.5
2019-04-11T04:11:45.416Z,65.5
2019-04-11T04:12:09.883Z,65.5
2019-04-11T04:12:34.097Z,65.5
2019-04-11T04:12:58.737Z,65.5
2019-04-11T04:13:25.172Z,65.5
2019-04-11T04:13:50.156Z,65.5
2019-04-11T04:14:15.375Z,65.5
2019-04-11T04:14:39.611Z,53.599998
2019-04-11T04:15:07.030Z,53.599998
2019-04-11T04:15:44.002Z,53.599998
2019-04-11T04:16:11.815Z,53.599998
2019-04-11T04:16:34.077Z,53.599998
2019-04-11T04:16:57.226Z,53.599998
2019-04-11T04:17:21.864Z,53.599998
2019-04-11T04:17:46.125Z,53.599998
2019-04-11T04:18:10.714Z,53.599998
2019-04-11T04:18:34.551Z,53.599998
2019-04-11T04:18:59.204Z,53.599998
2019-04-11T04:19:25.401Z,53.599998
2019-04-11T04:19:50.337Z,53.599998
2019-04-11T04:20:15.644Z,53.599998
2019-04-11T04:20:40.057Z,53.599998
2019-04-11T04:21:04.598Z,53.599998
2019-04-11T04:21:29.438Z,53.599998
2019-04-11T04:21:53.716Z,53.599998
2019-04-11T04:22:18.408Z,53.599998
2019-04-11T04:22:42.579Z,52.900002
2019-04-11T04:23:07.995Z,52.900002
2019-04-11T04:23:32.021Z,52.900002
2019-04-11T04:23:56.482Z,52.900002
2019-04-11T04:24:21.464Z,52.900002
2019-04-11T04:24:49.626Z,52.900002
2019-04-11T04:25:15.039Z,52.900002
2019-04-11T04:25:39.645Z,52.900002
2019-04-11T04:26:05.962Z,52.900002
2019-04-11T04:26:29.823Z,52.900002
2019-04-11T04:26:55.146Z,52.900002
2019-04-11T04:27:20.340Z,52.900002
2019-04-11T04:27:45.441Z,52.900002
2019-04-11T04:28:10.037Z,52.900002
2019-04-11T04:28:34.168Z,52.900002
2019-04-11T04:28:58.211Z,52.900002
2019-04-11T04:29:22.496Z,52.900002
2019-04-11T04:29:51.643Z,52.900002
2019-04-11T04:30:15.842Z,52.900002
2019-04-11T04:30:40.988Z,52.900002
2019-04-11T04:31:05.201Z,52.900002
2019-04-11T04:31:29.268Z,52.900002
2019-04-11T04:31:53.613Z,52.900002
2019-04-11T04:32:19.098Z,52.900002
2019-04-11T04:32:43.344Z,52.900002
2019-04-11T04:33:07.579Z,52.900002
2019-04-11T04:33:33.668Z,52.900002
2019-04-11T04:33:58.207Z,52.900002
2019-04-11T04:34:22.283Z,52.900002
2019-04-11T04:34:46.813Z,52.900002
2019-04-11T04:35:15.428Z,52.900002
2019-04-11T04:35:38.515Z,52.900002
2019-04-11T04:36:02.928Z,52.900002
2019-04-11T04:36:29.354Z,52.900002
2019-04-11T04:36:54.174Z,52.900002
2019-04-11T04:37:18.596Z,52.900002
2019-04-11T04:37:45.788Z,52.900002
2019-04-11T04:38:09.930Z,52.900002
2019-04-11T04:38:34.245Z,52.900002
2019-04-11T04:38:59.628Z,52.900002
2019-04-11T04:39:25.373Z,52.900002
2019-04-11T04:39:55.592Z,52.900002
2019-04-11T04:40:35.316Z,52.900002
2019-04-11T04:41:00.057Z,52.900002
2019-04-11T04:41:22.015Z,52.900002
2019-04-11T04:41:48.854Z,52.900002
2019-04-11T04:42:15.187Z,52.900002
2019-04-11T04:42:40.069Z,52.900002
2019-04-11T04:43:05.689Z,52.900002
2019-04-11T04:43:30.048Z,52.900002
2019-04-11T04:43:55.263Z,52.900002
2019-04-11T04:44:19.465Z,52.900002
2019-04-11T04:44:45.064Z,52.900002
2019-04-11T04:45:10.049Z,52.900002
2019-04-11T04:45:51.852Z,70.800003
2019-04-11T04:46:16.752Z,70.800003
2019-04-11T04:46:42.110Z,70.800003
2019-04-11T04:47:05.345Z,70.800003
2019-04-11T04:47:31.143Z,70.800003
2019-04-11T04:47:56.490Z,70.800003
2019-04-11T04:48:20.436Z,70.800003
2019-04-11T04:48:45.236Z,70.800003
2019-04-11T04:49:09.637Z,70.800003
2019-04-11T04:49:34.860Z,70.800003
2019-04-11T04:49:59.817Z,70.800003
2019-04-11T04:50:24.889Z,70.800003
2019-04-11T04:50:49.303Z,70.800003
2019-04-11T04:51:18.101Z,70.800003
2019-04-11T04:51:41.981Z,70.800003
2019-04-11T04:52:06.522Z,70.800003
2019-04-11T04:52:32.409Z,70.800003
2019-04-11T04:52:56.425Z,70.800003
2019-04-11T04:53:20.820Z,79.199997
2019-04-11T04:53:46.347Z,79.199997
2019-04-11T04:54:10.625Z,79.199997
2019-04-11T04:54:35.037Z,79.199997